createdAt,value
2024-03-02T00:00:53.235Z,4.47
2024-03-02T00:03:21.646Z,4.47
2024-03-02T00:05:53.608Z,4.50
2024-03-02T00:08:27.863Z,4.53
2024-03-02T00:11:00.126Z,4.50
2024-03-02T00:13:28.473Z,4.51
2024-03-02T00:15:57.756Z,4.50
2024-03-02T00:18:29.024Z,4.47
2024-03-02T00:20:58.358Z,4.46
2024-03-02T00:23:31.874Z,4.48
2024-03-02T00:26:01.154Z,4.50
2024-03-02T00:28:31.441Z,4.53
2024-03-02T00:31:01.174Z,4.50
2024-03-02T00:33:32.760Z,4.48
2024-03-02T00:36:01.907Z,4.47
2024-03-02T00:38:31.497Z,4.47
2024-03-02T00:41:01.057Z,4.45
2024-03-02T00:43:47.289Z,4.45
2024-03-02T00:46:18.562Z,4.46
2024-03-02T00:49:06.075Z,4.45
2024-03-02T00:51:36.914Z,4.48
2024-03-02T00:54:07.761Z,4.50
2024-03-02T00:56:36.858Z,4.50
2024-03-02T00:59:04.842Z,4.51
2024-03-02T01:01:32.809Z,4.51
2024-03-02T01:04:00.778Z,4.51
2024-03-02T01:06:28.876Z,4.55
2024-03-02T01:08:56.644Z,4.59
2024-03-02T01:11:25.905Z,4.61
2024-03-02T01:13:54.285Z,4.62
2024-03-02T01:16:22.453Z,4.60
2024-03-02T01:18:50.520Z,4.60
2024-03-02T01:21:18.522Z,4.58
2024-03-02T01:23:46.344Z,4.56
2024-03-02T01:26:16.244Z,4.54
2024-03-02T01:28:45.347Z,4.52
2024-03-02T01:31:13.130Z,4.50
2024-03-02T01:33:40.964Z,4.52
2024-03-02T01:36:09.745Z,4.52
2024-03-02T01:38:37.589Z,4.51
2024-03-02T01:41:05.595Z,4.51
2024-03-02T01:43:33.362Z,4.50
2024-03-02T01:46:02.646Z,4.49
2024-03-02T01:48:32.879Z,4.50
2024-03-02T01:51:00.663Z,4.48
2024-03-02T01:53:29.463Z,4.48
2024-03-02T01:55:57.283Z,4.46
2024-03-02T01:58:25.045Z,4.44
2024-03-02T02:00:52.995Z,4.43
2024-03-02T02:03:22.233Z,4.43
2024-03-02T02:05:50.033Z,4.43
2024-03-02T02:08:17.851Z,4.42
2024-03-02T02:10:45.900Z,4.38
2024-03-02T02:13:16.797Z,4.37
2024-03-02T02:15:44.702Z,4.37
2024-03-02T02:18:12.515Z,4.36
2024-03-02T02:20:41.772Z,4.33
2024-03-02T02:23:11.471Z,4.34
2024-03-02T02:25:39.347Z,4.34
2024-03-02T02:28:13.041Z,4.37
2024-03-02T02:30:40.886Z,4.36
2024-03-02T02:33:08.764Z,4.38
2024-03-02T02:35:36.796Z,4.39
2024-03-02T02:38:05.326Z,4.42
2024-03-02T02:40:34.493Z,4.42
2024-03-02T02:43:02.313Z,4.42
2024-03-02T02:45:30.147Z,4.43
2024-03-02T02:47:57.961Z,4.41
2024-03-02T02:50:25.838Z,4.43
2024-03-02T02:52:53.600Z,4.43
2024-03-02T02:55:21.455Z,4.44
2024-03-02T02:57:50.728Z,4.45
2024-03-02T03:00:21.359Z,4.46
2024-03-02T03:02:51.933Z,4.47
2024-03-02T03:05:20.330Z,4.47
2024-03-02T03:07:50.964Z,4.48
2024-03-02T03:10:19.829Z,4.50
2024-03-02T03:12:47.917Z,4.52
2024-03-02T03:15:18.308Z,4.55
2024-03-02T03:17:47.349Z,4.59
2024-03-02T03:20:16.571Z,4.62
2024-03-02T03:22:44.734Z,4.64
2024-03-02T03:25:12.579Z,4.68
2024-03-02T03:27:40.401Z,4.70
2024-03-02T03:30:09.526Z,4.74
2024-03-02T03:32:38.693Z,4.75
2024-03-02T03:35:07.704Z,4.77
2024-03-02T03:37:36.141Z,4.77
2024-03-02T03:40:04.120Z,4.75
2024-03-02T03:42:32.044Z,4.72
2024-03-02T03:45:00.032Z,4.69
2024-03-02T03:47:27.828Z,4.66
2024-03-02T03:49:59.628Z,4.66
2024-03-02T03:52:27.514Z,4.63
2024-03-02T03:54:55.325Z,4.60
2024-03-02T03:57:26.032Z,4.60
2024-03-02T03:59:54.013Z,4.58
2024-03-02T04:02:21.840Z,4.68
2024-03-02T04:04:49.637Z,4.63
2024-03-02T04:07:19.199Z,4.59
2024-03-02T04:09:47.040Z,4.49
2024-03-02T04:12:15.158Z,4.52
2024-03-02T04:14:43.957Z,4.51
2024-03-02T04:17:11.851Z,4.47
2024-03-02T04:19:39.688Z,4.45
2024-03-02T04:22:15.284Z,4.47
2024-03-02T04:24:48.256Z,4.44
2024-03-02T04:27:16.075Z,4.44
2024-03-02T04:29:43.942Z,4.46
2024-03-02T04:32:11.738Z,4.46
2024-03-02T04:34:39.543Z,4.48
2024-03-02T04:37:08.032Z,4.50
2024-03-02T04:39:37.028Z,4.47
2024-03-02T04:42:06.873Z,4.46
2024-03-02T04:44:34.692Z,4.44
2024-03-02T04:47:02.966Z,4.42
2024-03-02T04:49:31.302Z,4.55
2024-03-02T04:51:59.359Z,4.45
2024-03-02T04:54:27.477Z,4.46
2024-03-02T04:56:55.270Z,4.51
2024-03-02T04:59:24.373Z,4.53
2024-03-02T05:01:52.193Z,4.48
2024-03-02T05:04:19.992Z,4.44
2024-03-02T05:06:53.813Z,4.43
2024-03-02T05:09:21.905Z,4.44
2024-03-02T05:12:10.812Z,4.46
2024-03-02T05:14:40.576Z,4.50
2024-03-02T05:17:08.424Z,4.50
2024-03-02T05:19:36.230Z,4.52
2024-03-02T05:22:04.366Z,4.49
2024-03-02T05:24:32.311Z,4.47
2024-03-02T05:27:00.764Z,4.45
2024-03-02T05:29:28.554Z,4.43
2024-03-02T05:31:57.756Z,4.40
2024-03-02T05:34:25.631Z,4.39
2024-03-02T05:36:53.498Z,4.32
2024-03-02T05:39:21.472Z,4.28
2024-03-02T05:41:49.250Z,4.26
2024-03-02T05:44:17.442Z,4.25
2024-03-02T05:46:45.418Z,4.24
2024-03-02T05:49:14.552Z,4.27
2024-03-02T05:51:42.749Z,4.29
2024-03-02T05:54:10.548Z,4.32
2024-03-02T05:56:39.321Z,4.34
2024-03-02T05:59:13.905Z,4.36
2024-03-02T06:01:42.158Z,4.38
2024-03-02T06:04:10.096Z,4.42
2024-03-02T06:06:39.790Z,4.44
2024-03-02T06:09:09.417Z,4.45
2024-03-02T06:11:37.608Z,4.49
2024-03-02T06:14:05.718Z,4.54
2024-03-02T06:16:33.525Z,4.55
2024-03-02T06:19:01.748Z,4.67
2024-03-02T06:21:30.109Z,4.63
2024-03-02T06:23:59.287Z,4.59
2024-03-02T06:26:27.067Z,4.58
2024-03-02T06:28:54.876Z,4.52
2024-03-02T06:31:22.732Z,4.46
2024-03-02T06:33:50.644Z,4.40
2024-03-02T06:36:18.495Z,4.38
2024-03-02T06:38:46.336Z,4.32
2024-03-02T06:41:15.485Z,4.30
2024-03-02T06:43:43.243Z,4.30
2024-03-02T06:46:11.399Z,4.26
2024-03-02T06:48:39.282Z,4.25
2024-03-02T06:51:07.160Z,4.22
2024-03-02T06:53:35.750Z,4.20
2024-03-02T06:56:03.579Z,4.23
2024-03-02T06:58:33.724Z,4.19
2024-03-02T07:01:01.774Z,4.19
2024-03-02T07:03:29.848Z,4.20
2024-03-02T07:05:58.465Z,4.17
2024-03-02T07:08:26.456Z,4.18
2024-03-02T07:10:54.267Z,4.20
2024-03-02T07:13:22.424Z,4.20
2024-03-02T07:16:16.789Z,4.21
2024-03-02T07:18:52.310Z,4.21
2024-03-02T07:21:20.280Z,4.19
2024-03-02T07:23:51.043Z,4.18
2024-03-02T07:28:51.122Z,4.22
2024-03-02T07:31:20.274Z,4.22
2024-03-02T07:33:48.512Z,4.24
2024-03-02T07:36:20.775Z,4.27
2024-03-02T07:38:51.380Z,4.30
2024-03-02T07:41:19.164Z,4.36
2024-03-02T07:43:47.066Z,4.46
2024-03-02T07:46:15.536Z,4.54
2024-03-02T07:48:45.597Z,4.64
2024-03-02T07:51:15.897Z,4.76
2024-03-02T07:53:44.530Z,4.93
2024-03-02T07:56:13.130Z,5.03
2024-03-02T07:58:41.985Z,5.20
2024-03-02T08:01:09.917Z,5.33
2024-03-02T08:03:37.902Z,5.50
2024-03-02T08:06:07.407Z,5.62
2024-03-02T08:08:35.228Z,5.76
2024-03-02T08:11:03.043Z,5.88
2024-03-02T08:13:30.905Z,5.88
2024-03-02T08:15:58.874Z,5.97
2024-03-02T08:18:26.975Z,6.13
2024-03-02T08:20:54.845Z,6.24
2024-03-02T08:23:24.068Z,6.46
2024-03-02T08:25:51.962Z,6.69
2024-03-02T08:28:20.153Z,6.85
2024-03-02T08:30:48.082Z,6.78
2024-03-02T08:33:15.984Z,6.89
2024-03-02T08:35:43.856Z,6.93
2024-03-02T08:38:11.678Z,7.06
2024-03-02T08:40:40.838Z,7.24
2024-03-02T08:43:09.262Z,7.41
2024-03-02T08:45:37.110Z,7.44
2024-03-02T08:48:05.805Z,7.55
2024-03-02T08:50:33.695Z,7.77
2024-03-02T08:53:01.458Z,7.95
2024-03-02T08:55:29.458Z,8.18
2024-03-02T08:57:58.723Z,8.39
2024-03-02T09:00:27.266Z,8.68
2024-03-02T09:02:55.090Z,8.83
2024-03-02T09:05:22.846Z,8.88
2024-03-02T09:07:51.566Z,8.89
2024-03-02T09:10:19.406Z,9.16
2024-03-02T09:12:47.193Z,9.51
2024-03-02T09:15:16.629Z,9.83
2024-03-02T09:17:44.404Z,10.07
2024-03-02T09:20:13.386Z,10.28
2024-03-02T09:22:41.230Z,10.27
2024-03-02T09:25:10.064Z,10.49
2024-03-02T09:27:38.918Z,10.78
2024-03-02T09:30:09.697Z,11.00
2024-03-02T09:32:39.852Z,11.02
2024-03-02T09:35:08.256Z,10.99
2024-03-02T09:37:36.043Z,11.05
2024-03-02T09:40:04.131Z,11.12
2024-03-02T09:42:33.464Z,11.12
2024-03-02T09:45:01.358Z,11.19
2024-03-02T09:47:29.198Z,11.26
2024-03-02T09:49:58.767Z,11.39
2024-03-02T09:52:26.566Z,11.54
2024-03-02T09:54:54.558Z,11.52
2024-03-02T09:57:22.516Z,11.58
2024-03-02T09:59:50.289Z,11.69
2024-03-02T10:02:17.997Z,11.89
2024-03-02T10:04:46.097Z,12.18
2024-03-02T10:07:16.890Z,12.46
2024-03-02T10:09:46.256Z,12.97
2024-03-02T10:12:16.001Z,12.73
2024-03-02T10:14:44.863Z,13.12
2024-03-02T10:17:14.415Z,13.42
2024-03-02T10:19:42.433Z,13.56
2024-03-02T10:22:11.778Z,13.86
2024-03-02T10:24:42.059Z,13.94
2024-03-02T10:27:11.382Z,14.45
2024-03-02T10:29:40.951Z,14.57
2024-03-02T10:32:12.228Z,14.19
2024-03-02T10:34:41.725Z,14.13
2024-03-02T10:37:09.685Z,14.38
2024-03-02T10:39:37.892Z,14.65
2024-03-02T10:42:08.248Z,14.66
2024-03-02T10:44:36.614Z,15.06
2024-03-02T10:47:06.751Z,14.98
2024-03-02T10:49:35.392Z,15.00
2024-03-02T10:52:03.613Z,15.23
2024-03-02T10:54:37.607Z,15.50
2024-03-02T10:57:10.798Z,15.68
2024-03-02T10:59:42.593Z,15.58
2024-03-02T11:02:14.443Z,15.82
2024-03-02T11:04:44.226Z,15.59
2024-03-02T11:07:13.599Z,15.81
2024-03-02T11:09:45.530Z,15.92
2024-03-02T11:12:21.465Z,16.42
2024-03-02T11:14:49.323Z,16.85
2024-03-02T11:17:18.823Z,17.29
2024-03-02T11:19:47.506Z,17.50
2024-03-02T11:22:16.972Z,17.43
2024-03-02T11:24:49.458Z,17.88
2024-03-02T11:27:57.415Z,18.15
2024-03-02T11:30:54.281Z,18.29
2024-03-02T11:33:28.557Z,17.99
2024-03-02T11:35:57.977Z,18.07
2024-03-02T11:38:30.095Z,17.95
2024-03-02T11:40:58.503Z,18.06
2024-03-02T11:43:34.219Z,17.81
2024-03-02T11:46:05.474Z,17.95
2024-03-02T11:48:34.188Z,17.95
2024-03-02T11:51:03.122Z,18.08
2024-03-02T11:53:35.530Z,17.93
2024-03-02T11:56:04.451Z,18.03
2024-03-02T11:58:34.663Z,17.54
2024-03-02T12:01:03.741Z,17.42
2024-03-02T12:03:31.641Z,16.99
2024-03-02T12:06:01.515Z,17.01
2024-03-02T12:08:29.871Z,17.47
2024-03-02T12:10:58.890Z,17.81
2024-03-02T12:13:26.954Z,17.56
2024-03-02T12:15:58.217Z,17.85
2024-03-02T12:18:26.878Z,18.09
2024-03-02T12:20:58.540Z,17.65
2024-03-02T12:23:27.432Z,17.82
2024-03-02T12:25:55.591Z,17.61
2024-03-02T12:28:23.582Z,17.75
2024-03-02T12:30:51.888Z,17.56
2024-03-02T12:33:22.547Z,16.73
2024-03-02T12:35:51.521Z,16.65
2024-03-02T12:38:19.396Z,16.66
2024-03-02T12:40:49.583Z,16.79
2024-03-02T12:43:17.434Z,17.03
2024-03-02T12:45:45.305Z,17.07
2024-03-02T12:48:13.200Z,17.26
2024-03-02T12:50:42.582Z,17.48
2024-03-02T12:53:16.930Z,17.64
2024-03-02T12:55:45.685Z,17.99
2024-03-02T12:58:19.213Z,17.96
2024-03-02T13:00:47.230Z,18.22
2024-03-02T13:03:16.338Z,17.78
2024-03-02T13:05:50.870Z,17.91
2024-03-02T13:08:18.935Z,17.70
2024-03-02T13:10:46.941Z,17.80
2024-03-02T13:13:16.003Z,17.63
2024-03-02T13:15:44.337Z,17.52
2024-03-02T13:18:13.118Z,17.35
2024-03-02T13:20:41.164Z,17.01
2024-03-02T13:23:11.367Z,17.00
2024-03-02T13:25:39.141Z,17.01
2024-03-02T13:28:07.804Z,16.67
2024-03-02T13:30:35.744Z,16.56
2024-03-02T13:33:03.555Z,16.74
2024-03-02T13:35:33.331Z,16.67
2024-03-02T13:38:01.089Z,16.86
2024-03-02T13:40:32.599Z,16.68
2024-03-02T13:43:00.660Z,16.66
2024-03-02T13:45:29.056Z,16.72
2024-03-02T13:47:57.365Z,16.81
2024-03-02T13:50:25.366Z,16.57
2024-03-02T13:52:53.240Z,16.44
2024-03-02T13:55:21.305Z,16.39
2024-03-02T13:57:51.292Z,16.44
2024-03-02T14:00:20.177Z,16.32
2024-03-02T14:02:50.636Z,16.23
2024-03-02T14:05:18.520Z,16.09
2024-03-02T14:07:46.290Z,16.00
2024-03-02T14:10:14.806Z,16.04
2024-03-02T14:12:43.509Z,16.39
2024-03-02T14:15:13.265Z,16.68
2024-03-02T14:17:41.200Z,17.38
2024-03-02T14:20:11.478Z,18.32
2024-03-02T14:22:39.498Z,18.70
2024-03-02T14:25:07.903Z,19.43
2024-03-02T14:27:50.863Z,18.20
2024-03-02T14:30:26.232Z,17.45
2024-03-02T14:32:54.373Z,17.57
2024-03-02T14:35:23.908Z,17.26
2024-03-02T14:37:54.087Z,16.70
2024-03-02T14:40:22.967Z,17.47
2024-03-02T14:42:50.875Z,19.13
2024-03-02T14:45:18.833Z,18.35
2024-03-02T14:47:48.392Z,17.16
2024-03-02T14:50:17.850Z,16.29
2024-03-02T14:52:47.678Z,15.70
2024-03-02T14:55:15.754Z,15.17
2024-03-02T14:57:44.457Z,14.86
2024-03-02T15:00:13.350Z,14.68
2024-03-02T15:02:41.252Z,14.55
2024-03-02T15:05:11.151Z,14.48
2024-03-02T15:07:39.740Z,14.40
2024-03-02T15:10:09.576Z,14.11
2024-03-02T15:12:38.863Z,13.94
2024-03-02T15:15:07.846Z,13.78
2024-03-02T15:17:35.820Z,13.73
2024-03-02T15:20:05.629Z,13.74
2024-03-02T15:22:34.893Z,13.61
2024-03-02T15:25:02.743Z,13.63
2024-03-02T15:27:30.635Z,13.47
2024-03-02T15:29:58.927Z,13.44
2024-03-02T15:32:27.809Z,13.28
2024-03-02T15:34:55.769Z,13.21
2024-03-02T15:37:23.742Z,13.20
2024-03-02T15:39:53.020Z,13.07
2024-03-02T15:42:24.410Z,13.10
2024-03-02T15:44:52.226Z,13.04
2024-03-02T15:47:20.057Z,12.91
2024-03-02T15:49:47.891Z,12.79
2024-03-02T15:52:19.345Z,12.70
2024-03-02T15:54:47.359Z,12.66
2024-03-02T15:57:17.464Z,12.58
2024-03-02T15:59:45.542Z,12.44
2024-03-02T16:02:13.463Z,12.37
2024-03-02T16:04:41.292Z,12.34
2024-03-02T16:07:09.445Z,12.26
2024-03-02T16:09:37.454Z,12.19
2024-03-02T16:12:06.177Z,12.10
2024-03-02T16:14:36.559Z,12.11
2024-03-02T16:17:06.536Z,11.99
2024-03-02T16:19:35.371Z,11.90
2024-03-02T16:22:03.331Z,11.79
2024-03-02T16:24:31.343Z,11.69
2024-03-02T16:26:59.183Z,11.57
2024-03-02T16:29:26.977Z,11.45
2024-03-02T16:31:57.262Z,11.33
2024-03-02T16:34:25.104Z,11.06
2024-03-02T16:36:53.014Z,10.93
2024-03-02T16:39:20.836Z,10.77
2024-03-02T16:41:48.757Z,10.66
2024-03-02T16:44:16.567Z,10.53
2024-03-02T16:46:46.251Z,10.38
2024-03-02T16:49:15.603Z,10.29
2024-03-02T16:51:44.465Z,10.17
2024-03-02T16:54:12.553Z,10.14
2024-03-02T16:56:41.268Z,10.00
2024-03-02T16:59:09.170Z,9.84
2024-03-02T17:01:37.302Z,9.83
2024-03-02T17:04:07.550Z,9.73
2024-03-02T17:06:37.182Z,9.59
2024-03-02T17:09:05.279Z,9.48
2024-03-02T17:11:33.140Z,9.36
2024-03-02T17:14:01.144Z,9.28
2024-03-02T17:16:29.047Z,9.18
2024-03-02T17:18:56.977Z,9.17
2024-03-02T17:21:24.815Z,9.11
2024-03-02T17:23:54.037Z,9.06
2024-03-02T17:26:22.145Z,9.09
2024-03-02T17:28:49.959Z,9.02
2024-03-02T17:31:17.800Z,8.88
2024-03-02T17:33:47.514Z,8.84
2024-03-02T17:36:15.519Z,8.76
2024-03-02T17:38:43.609Z,8.72
2024-03-02T17:41:12.751Z,8.62
2024-03-02T17:43:41.352Z,8.66
2024-03-02T17:46:09.279Z,8.59
2024-03-02T17:48:37.166Z,8.52
2024-03-02T17:51:08.488Z,8.41
2024-03-02T17:53:36.292Z,8.33
2024-03-02T17:56:04.476Z,8.22
2024-03-02T17:58:34.668Z,8.14
2024-03-02T18:01:02.747Z,8.08
2024-03-02T18:03:30.736Z,8.03
2024-03-02T18:05:58.524Z,7.92
2024-03-02T18:08:26.440Z,7.87
2024-03-02T18:10:54.282Z,7.78
2024-03-02T18:13:22.114Z,7.68
2024-03-02T18:15:51.866Z,7.57
2024-03-02T18:18:19.893Z,7.49
2024-03-02T18:20:47.778Z,7.42
2024-03-02T18:23:15.617Z,7.35
2024-03-02T18:25:47.389Z,7.27
2024-03-02T18:28:15.494Z,7.23
2024-03-02T18:30:43.396Z,7.20
2024-03-02T18:33:12.578Z,7.13
2024-03-02T18:35:40.513Z,7.12
2024-03-02T18:38:08.324Z,7.04
2024-03-02T18:40:36.231Z,6.97
2024-03-02T18:43:07.367Z,6.89
2024-03-02T18:45:35.456Z,6.81
2024-03-02T18:48:04.723Z,6.79
2024-03-02T18:50:34.112Z,6.76
2024-03-02T18:53:02.025Z,6.71
2024-03-02T18:55:29.820Z,6.67
2024-03-02T18:57:58.297Z,6.68
2024-03-02T19:00:26.244Z,6.61
2024-03-02T19:02:54.201Z,6.58
2024-03-02T19:05:22.015Z,6.46
2024-03-02T19:07:51.477Z,6.36
2024-03-02T19:10:19.235Z,6.23
2024-03-02T19:12:48.809Z,6.12
2024-03-02T19:15:18.948Z,6.02
2024-03-02T19:17:49.634Z,5.90
2024-03-02T19:20:18.569Z,5.82
2024-03-02T19:22:46.356Z,5.72
2024-03-02T19:25:15.911Z,5.63
2024-03-02T19:27:43.948Z,5.55
2024-03-02T19:30:12.890Z,5.48
2024-03-02T19:32:41.750Z,5.37
2024-03-02T19:35:10.196Z,5.29
2024-03-02T19:37:39.264Z,5.16
2024-03-02T19:40:09.673Z,5.04
2024-03-02T19:42:38.963Z,4.93
2024-03-02T19:45:07.646Z,4.81
2024-03-02T19:47:36.205Z,4.73
2024-03-02T19:50:05.530Z,4.67
2024-03-02T19:52:33.611Z,4.58
2024-03-02T19:55:06.298Z,4.49
2024-03-02T19:57:36.977Z,4.40
2024-03-02T20:00:07.882Z,4.39
2024-03-02T20:02:35.835Z,4.36
2024-03-02T20:05:05.200Z,4.24
2024-03-02T20:07:33.110Z,4.18
2024-03-02T20:10:01.016Z,4.13
2024-03-02T20:12:29.092Z,4.06
2024-03-02T20:14:56.892Z,3.97
2024-03-02T20:17:26.135Z,3.91
2024-03-02T20:19:54.736Z,3.81
2024-03-02T20:22:22.463Z,3.74
2024-03-02T20:24:52.270Z,3.71
2024-03-02T20:27:20.912Z,3.66
2024-03-02T20:29:48.773Z,3.61
2024-03-02T20:32:18.761Z,3.55
2024-03-02T20:34:47.932Z,3.48
2024-03-02T20:37:15.896Z,3.38
2024-03-02T20:39:43.786Z,3.29
2024-03-02T20:42:11.551Z,3.24
2024-03-02T20:44:39.348Z,3.20
2024-03-02T20:47:07.132Z,3.13
2024-03-02T20:49:34.936Z,3.07
2024-03-02T20:52:04.277Z,3.03
2024-03-02T20:54:32.155Z,3.01
2024-03-02T20:57:00.242Z,3.11
2024-03-02T20:59:28.457Z,3.10
2024-03-02T21:01:56.202Z,3.01
2024-03-02T21:04:24.142Z,2.98
2024-03-02T21:06:52.182Z,2.97
2024-03-02T21:09:21.427Z,2.97
2024-03-02T21:11:49.849Z,2.94
2024-03-02T21:14:17.615Z,2.91
2024-03-02T21:16:45.355Z,2.93
2024-03-02T21:19:13.726Z,2.97
2024-03-02T21:21:43.543Z,2.95
2024-03-02T21:24:11.356Z,2.86
2024-03-02T21:26:44.440Z,2.88
2024-03-02T21:29:12.941Z,2.85
2024-03-02T21:31:41.204Z,2.93
2024-03-02T21:34:09.041Z,2.86
2024-03-02T21:36:38.280Z,2.72
2024-03-02T21:39:06.335Z,2.62
2024-03-02T21:41:34.251Z,2.52
2024-03-02T21:44:03.484Z,2.56
2024-03-02T21:46:31.190Z,2.55
2024-03-02T21:49:00.124Z,2.57
2024-03-02T21:51:28.234Z,2.52
2024-03-02T21:53:57.123Z,2.56
2024-03-02T21:56:24.894Z,2.61
2024-03-02T21:58:53.087Z,2.58
2024-03-02T22:01:22.360Z,2.52
2024-03-02T22:03:50.334Z,2.43
2024-03-02T22:06:18.167Z,2.34
2024-03-02T22:08:45.968Z,2.30
2024-03-02T22:11:13.924Z,2.20
2024-03-02T22:13:41.715Z,2.09
2024-03-02T22:16:09.520Z,2.04
2024-03-02T22:18:38.720Z,1.97
2024-03-02T22:21:06.646Z,1.92
2024-03-02T22:23:34.578Z,1.86
2024-03-02T22:26:02.314Z,1.85
2024-03-02T22:28:30.189Z,1.77
2024-03-02T22:30:58.053Z,1.79
2024-03-02T22:33:26.163Z,1.78
2024-03-02T22:35:57.571Z,1.69
2024-03-02T22:38:25.812Z,1.65
2024-03-02T22:40:53.951Z,1.62
2024-03-02T22:43:23.935Z,1.55
2024-03-02T22:45:51.701Z,1.51
2024-03-02T22:48:19.505Z,1.44
2024-03-02T22:50:47.665Z,1.44
2024-03-02T22:53:16.824Z,1.48
2024-03-02T22:55:44.591Z,1.49
2024-03-02T22:58:12.468Z,1.41
2024-03-02T23:00:49.235Z,1.42
2024-03-02T23:03:18.975Z,1.33
2024-03-02T23:05:46.886Z,1.29
2024-03-02T23:08:18.044Z,1.24
2024-03-02T23:10:46.502Z,1.14
2024-03-02T23:13:14.884Z,1.13
2024-03-02T23:15:42.721Z,1.10
2024-03-02T23:18:10.528Z,1.11
2024-03-02T23:20:38.281Z,1.05
2024-03-02T23:23:06.916Z,1.11
2024-03-02T23:25:36.343Z,1.03
2024-03-02T23:28:04.752Z,0.96
2024-03-02T23:30:33.230Z,0.89
2024-03-02T23:33:01.087Z,0.85
2024-03-02T23:35:28.977Z,0.86
2024-03-02T23:37:56.732Z,0.85
2024-03-02T23:40:53.381Z,0.81
2024-03-02T23:43:22.576Z,0.78
2024-03-02T23:45:50.361Z,0.75
2024-03-02T23:48:18.287Z,0.76
2024-03-02T23:50:46.034Z,0.69
2024-03-02T23:53:13.828Z,0.63
2024-03-02T23:55:47.756Z,0.61
2024-03-02T23:58:20.374Z,0.61
